Time;durP1;ratioP1;P1;durP2;ratioP2;P2;SDS_P1;SDS_P2;PMS_P1;PMS_P2;Temp;Humidity;BMP_temperature;BMP_pressure;BME280_temperature;BME280_humidity;BME280_pressure;Samples;Min_cycle;Max_cycle;Signal;HPM_P1;HPM_P2
2022/05/23 00:00:05;;;;;;;1.40;1.40;;;;;;;18.27;59.69;95966.84;5012409;28;20176;-70
2022/05/23 00:02:30;;;;;;;2.08;1.88;;;;;;;18.27;59.99;95961.53;5012100;28;20195;-70
2022/05/23 00:04:55;;;;;;;3.00;2.00;;;;;;;18.25;60.22;95963.69;5011886;28;20183;-70
2022/05/23 00:07:29;;;;;;;2.17;1.87;;;;;;;18.08;61.14;95962.69;5012061;28;20658;-70
2022/05/23 00:09:54;;;;;;;1.80;1.70;;;;;;;18.07;61.15;95955.81;5012384;28;20176;-70
2022/05/23 00:12:22;;;;;;;3.80;2.17;;;;;;;17.98;61.44;95954.94;5012334;28;20193;-70
2022/05/23 00:14:49;;;;;;;1.70;1.60;;;;;;;17.97;61.69;95959.44;5012186;28;20221;-70
2022/05/23 00:17:14;;;;;;;1.73;1.63;;;;;;;17.95;61.94;95958.16;5012829;28;20289;-70
2022/05/23 00:19:40;;;;;;;2.40;2.17;;;;;;;17.93;62.01;95950.50;5015868;28;20223;-69
2022/05/23 00:22:05;;;;;;;1.90;1.60;;;;;;;17.94;61.80;95948.66;5016047;28;20274;-70
2022/05/23 00:24:31;;;;;;;1.90;1.80;;;;;;;17.78;62.13;95935.66;5016529;28;20183;-69
2022/05/23 00:26:56;;;;;;;2.30;2.20;;;;;;;17.79;62.17;95944.38;5016227;28;20693;-69
2022/05/23 00:29:22;;;;;;;2.07;1.90;;;;;;;17.72;62.85;95939.47;5016229;28;20236;-70
2022/05/23 00:37:22;;;;;;;2.80;2.03;;;;;;;17.63;63.76;95917.38;5015530;28;20704;-70
2022/05/23 00:39:48;;;;;;;2.93;2.13;;;;;;;17.56;64.24;95894.94;4998150;28;20633;-69
2022/05/23 00:45:01;;;;;;;2.30;2.17;;;;;;;17.42;64.94;95890.44;5015784;28;20218;-70
2022/05/23 00:47:28;;;;;;;2.30;2.10;;;;;;;17.36;64.96;95883.63;5015569;28;20281;-69
2022/05/23 00:49:54;;;;;;;3.60;1.93;;;;;;;17.34;65.12;95890.28;5015938;28;20648;-70
2022/05/23 00:52:25;;;;;;;4.57;1.93;;;;;;;17.28;65.46;95881.66;5015712;28;20210;-70
2022/05/23 00:54:54;;;;;;;3.00;2.10;;;;;;;17.35;65.38;95879.41;5009300;28;20694;-70
2022/05/23 00:57:27;;;;;;;1.93;1.70;;;;;;;17.27;65.54;95880.09;5015740;28;20210;-70
2022/05/23 00:59:54;;;;;;;3.40;2.20;;;;;;;17.32;65.37;95890.59;5015931;28;20186;-70
2022/05/23 01:02:20;;;;;;;2.10;1.90;;;;;;;17.30;66.00;95884.81;5014586;28;20273;-69
2022/05/23 01:04:47;;;;;;;2.40;1.90;;;;;;;17.35;65.66;95884.72;5015416;28;20172;-70
2022/05/23 01:07:13;;;;;;;5.10;2.00;;;;;;;17.50;65.08;95874.94;5015233;28;20625;-69
2022/05/23 01:09:38;;;;;;;2.17;1.97;;;;;;;17.42;65.48;95869.22;5015763;28;20190;-69
2022/05/23 01:12:05;;;;;;;2.07;1.93;;;;;;;17.32;66.02;95868.63;5015331;28;20614;-69
2022/05/23 01:14:50;;;;;;;2.33;2.13;;;;;;;17.26;66.09;95870.56;5015027;28;20953;-68
2022/05/23 01:17:17;;;;;;;3.43;2.07;;;;;;;17.23;66.01;95862.41;5015280;28;20187;-69
2022/05/23 01:19:42;;;;;;;2.47;2.27;;;;;;;17.21;65.99;95853.97;5015271;28;20234;-69
2022/05/23 01:22:40;;;;;;;2.50;2.27;;;;;;;17.12;67.20;95858.34;4997399;28;20187;-69
2022/05/23 01:25:28;;;;;;;2.10;2.00;;;;;;;17.02;67.76;95854.03;5015207;28;20194;-69
2022/05/23 01:27:54;;;;;;;1.93;1.83;;;;;;;17.12;67.59;95845.91;5014786;28;20189;-71
2022/05/23 01:30:20;;;;;;;2.83;1.77;;;;;;;16.88;68.83;95851.34;5014221;28;20187;-70
2022/05/23 01:32:45;;;;;;;2.33;2.07;;;;;;;16.75;69.84;95841.47;5014413;28;20183;-69
2022/05/23 01:35:11;;;;;;;2.20;2.10;;;;;;;16.77;69.53;95839.34;5015280;28;20664;-69
2022/05/23 01:37:37;;;;;;;2.33;2.23;;;;;;;16.85;69.90;95843.97;5015091;28;20250;-70
2022/05/23 01:40:06;;;;;;;2.77;2.40;;;;;;;16.87;69.92;95838.38;5014700;28;20222;-70
2022/05/23 01:42:31;;;;;;;2.50;2.30;;;;;;;16.67;70.67;95831.53;5014538;28;20193;-69
2022/05/23 01:44:56;;;;;;;3.40;2.50;;;;;;;16.68;70.71;95832.31;5014804;28;20266;-69
2022/05/23 01:47:22;;;;;;;2.43;2.33;;;;;;;16.80;70.32;95832.69;5014739;28;20186;-69
2022/05/23 01:49:48;;;;;;;2.30;2.10;;;;;;;16.68;70.68;95837.63;5014425;28;20195;-69
2022/05/23 01:52:14;;;;;;;2.87;2.20;;;;;;;16.73;70.30;95838.31;4996870;28;20273;-70
2022/05/23 01:54:39;;;;;;;2.93;2.40;;;;;;;16.72;70.33;95833.34;5003332;28;20213;-69
2022/05/23 01:57:07;;;;;;;2.30;2.20;;;;;;;16.71;70.57;95839.72;5014294;28;20183;-70
2022/05/23 02:02:17;;;;;;;3.23;2.50;;;;;;;16.60;71.04;95839.06;5014306;28;20550;-70
2022/05/23 02:04:42;;;;;;;3.10;2.57;;;;;;;16.61;70.91;95841.41;5014658;28;20187;-69
2022/05/23 02:07:08;;;;;;;2.87;2.27;;;;;;;16.55;70.91;95831.94;5014372;28;20633;-70
2022/05/23 02:09:34;;;;;;;2.43;2.23;;;;;;;16.51;70.83;95819.59;5013904;28;20193;-69
2022/05/23 02:12:00;;;;;;;2.73;2.53;;;;;;;16.57;70.29;95818.44;5014113;28;20188;-69
2022/05/23 02:14:25;;;;;;;2.67;2.40;;;;;;;16.43;70.81;95820.25;5014334;28;20207;-69
2022/05/23 02:16:51;;;;;;;2.70;1.90;;;;;;;16.45;70.02;95820.72;5013700;28;20190;-70
2022/05/23 02:19:16;;;;;;;1.80;1.70;;;;;;;16.34;70.29;95820.09;5014161;28;20282;-69
2022/05/23 02:21:41;;;;;;;2.20;2.00;;;;;;;16.35;70.45;95808.44;5013985;28;20176;-71
2022/05/23 02:24:07;;;;;;;3.03;2.20;;;;;;;16.54;69.77;95796.00;5013859;28;20195;-69
2022/05/23 02:26:33;;;;;;;2.43;2.20;;;;;;;16.43;69.61;95793.81;5014094;28;20203;-70
2022/05/23 02:28:59;;;;;;;2.40;2.30;;;;;;;16.36;69.53;95796.00;5025192;28;20553;-70
2022/05/23 02:31:26;;;;;;;2.73;2.27;;;;;;;16.39;69.51;95804.16;5013580;28;20217;-69
2022/05/23 02:33:51;;;;;;;2.83;2.17;;;;;;;16.46;68.90;95806.44;5013960;28;20532;-69
2022/05/23 02:36:17;;;;;;;2.43;2.23;;;;;;;16.48;68.52;95797.16;5013688;28;20207;-69
2022/05/23 02:38:42;;;;;;;3.50;2.50;;;;;;;16.38;68.80;95791.22;4995962;28;20517;-69
2022/05/23 02:41:08;;;;;;;2.27;2.03;;;;;;;16.40;67.49;95776.63;5013615;28;20640;-69
2022/05/23 02:43:33;;;;;;;2.40;1.60;;;;;;;16.53;66.29;95769.84;5028341;28;20187;-70
2022/05/23 02:45:59;;;;;;;2.60;1.70;;;;;;;16.66;65.70;95758.56;5013582;28;20265;-69
2022/05/23 02:48:24;;;;;;;2.00;1.90;;;;;;;16.61;65.52;95748.81;5013929;28;20187;-69
2022/05/23 02:50:49;;;;;;;2.57;2.00;;;;;;;16.60;64.92;95749.91;5013273;28;20191;-69
2022/05/23 02:53:15;;;;;;;2.17;1.77;;;;;;;16.67;64.54;95744.22;5007165;28;20226;-69
2022/05/23 02:55:40;;;;;;;1.77;1.67;;;;;;;16.45;65.12;95742.16;5010377;28;20207;-70
2022/05/23 02:58:07;;;;;;;1.93;1.73;;;;;;;16.24;66.08;95748.84;5013260;28;20190;-70
2022/05/23 03:00:33;;;;;;;1.90;1.80;;;;;;;16.40;65.98;95744.91;5012917;28;20728;-69
2022/05/23 03:03:02;;;;;;;2.47;2.10;;;;;;;16.44;65.96;95740.59;5013502;28;20185;-69
2022/05/23 03:05:32;;;;;;;2.77;1.50;;;;;;;16.46;65.91;95740.31;5013185;28;20179;-70
2022/05/23 03:07:58;;;;;;;2.83;1.53;;;;;;;16.46;66.12;95732.38;5013133;28;20262;-70
2022/05/23 03:10:24;;;;;;;1.97;1.77;;;;;;;16.67;65.34;95736.28;5028182;28;20548;-70
2022/05/23 03:12:49;;;;;;;2.17;2.00;;;;;;;16.60;65.17;95731.38;5012964;28;20220;-70
2022/05/23 03:15:15;;;;;;;3.13;1.80;;;;;;;16.39;65.79;95724.81;5012476;28;20293;-70
2022/05/23 03:17:40;;;;;;;3.50;1.77;;;;;;;16.68;64.61;95721.19;5012760;28;20199;-71
2022/05/23 03:20:07;;;;;;;2.03;1.90;;;;;;;16.61;64.92;95732.16;5013233;28;20183;-70
2022/05/23 03:28:01;;;;;;;3.50;2.80;;;;;;;16.70;64.99;95722.50;5012197;28;20185;-70
2022/05/23 03:30:28;;;;;;;4.20;3.00;;;;;;;16.85;64.40;95724.06;5013039;28;20183;-70
2022/05/23 03:32:54;;;;;;;3.80;3.20;;;;;;;16.79;64.53;95726.03;5012317;28;20531;-70
2022/05/23 03:35:20;;;;;;;2.70;2.50;;;;;;;16.67;65.14;95727.56;5012885;28;20222;-70
2022/05/23 03:37:45;;;;;;;6.07;2.90;;;;;;;16.52;65.37;95737.31;5012623;28;20187;-71
2022/05/23 03:40:11;;;;;;;3.50;2.63;;;;;;;16.87;64.52;95732.50;5012705;28;20187;-70
2022/05/23 03:42:36;;;;;;;3.43;2.27;;;;;;;16.81;64.64;95720.44;5013184;28;20237;-70
2022/05/23 03:45:02;;;;;;;3.73;2.10;;;;;;;16.61;65.69;95719.72;5012484;28;20238;-70
2022/05/23 03:47:28;;;;;;;2.20;1.97;;;;;;;16.80;65.18;95716.22;4995125;28;20851;-70
2022/05/23 03:49:53;;;;;;;2.43;2.23;;;;;;;16.63;65.74;95722.06;5012334;28;20195;-71
2022/05/23 03:52:20;;;;;;;2.10;1.90;;;;;;;16.51;66.28;95724.34;5009196;28;20629;-71
2022/05/23 03:54:46;;;;;;;2.73;1.93;;;;;;;16.65;65.92;95733.16;5000145;28;20253;-70
2022/05/23 03:57:11;;;;;;;2.30;2.07;;;;;;;16.76;66.93;95747.78;5012523;28;20278;-70
2022/05/23 03:59:37;;;;;;;3.07;2.10;;;;;;;16.61;69.66;95743.53;5028182;28;20341;-69
2022/05/23 04:02:02;;;;;;;3.53;2.67;;;;;;;16.88;68.78;95745.47;5012566;28;20183;-70
2022/05/23 04:04:29;;;;;;;2.70;2.10;;;;;;;16.66;69.83;95750.63;5012618;28;20639;-70
2022/05/23 04:07:03;;;;;;;3.30;2.13;;;;;;;16.83;69.83;95753.47;5012568;28;20206;-71
2022/05/23 04:09:29;;;;;;;4.47;2.20;;;;;;;16.79;69.76;95760.44;5012243;28;20254;-70
2022/05/23 04:11:56;;;;;;;2.37;2.17;;;;;;;16.85;69.04;95763.78;5012673;28;20206;-70
2022/05/23 04:14:22;;;;;;;2.17;2.07;;;;;;;16.74;69.80;95797.56;5012295;28;20205;-70
2022/05/23 04:16:48;;;;;;;2.67;2.23;;;;;;;16.86;67.29;95805.84;5012516;28;20176;-70
2022/05/23 04:19:15;;;;;;;3.10;2.10;;;;;;;16.68;67.62;95864.88;5011871;28;20266;-70
2022/05/23 04:21:42;;;;;;;6.20;2.23;;;;;;;15.89;73.08;95940.41;5012686;28;20190;-70
2022/05/23 04:24:09;;;;;;;4.07;2.13;;;;;;;15.71;76.82;95939.28;5012373;28;20192;-70
2022/05/23 04:26:34;;;;;;;3.63;2.30;;;;;;;15.54;76.38;95938.94;5012698;28;20270;-70
2022/05/23 04:29:00;;;;;;;3.63;2.10;;;;;;;15.78;75.16;95957.44;5012641;28;20274;-70
2022/05/23 04:31:25;;;;;;;2.47;2.00;;;;;;;15.97;73.37;95970.75;5012158;28;20199;-70
2022/05/23 04:36:35;;;;;;;4.63;1.83;;;;;;;16.15;70.77;95986.69;5011673;28;20183;-70
2022/05/23 04:39:00;;;;;;;1.97;1.87;;;;;;;16.23;69.62;95999.25;5012336;28;20175;-70
2022/05/23 04:41:25;;;;;;;1.90;1.80;;;;;;;16.25;70.03;95990.28;5012535;28;20673;-70
2022/05/23 04:43:51;;;;;;;3.27;1.83;;;;;;;16.31;69.98;95983.84;5012443;28;20187;-70
2022/05/23 04:46:16;;;;;;;3.90;2.27;;;;;;;16.26;73.29;95981.28;5012057;28;20191;-70
2022/05/23 04:51:25;;;;;;;2.33;2.13;;;;;;;15.88;82.36;95983.00;5012105;28;20187;-70
2022/05/23 04:53:55;;;;;;;4.43;2.70;;;;;;;15.72;85.81;95990.25;5007866;28;20192;-69
2022/05/23 04:56:22;;;;;;;2.73;2.60;;;;;;;15.52;90.99;95982.53;5011575;28;20548;-69
2022/05/23 04:58:47;;;;;;;5.27;2.70;;;;;;;15.24;91.16;95974.25;5001217;28;20196;-69
2022/05/23 05:01:13;;;;;;;3.40;2.97;;;;;;;15.10;95.42;95957.44;5009176;28;20202;-72
2022/05/23 05:03:38;;;;;;;3.70;3.10;;;;;;;15.04;97.78;95940.09;5012931;28;20210;-69
2022/05/23 05:06:04;;;;;;;3.37;3.07;;;;;;;15.09;99.98;95934.78;5015288;28;20191;-68
2022/05/23 05:08:30;;;;;;;5.73;3.10;;;;;;;14.74;99.96;95908.63;5015677;28;20270;-68
2022/05/23 05:10:57;;;;;;;3.30;3.00;;;;;;;14.72;100.00;95903.63;5015834;28;20217;-68
2022/05/23 05:13:24;;;;;;;6.40;2.90;;;;;;;14.77;99.22;95905.44;5015269;28;20575;-68
2022/05/23 05:15:49;;;;;;;4.47;2.87;;;;;;;14.88;95.29;95910.38;5015336;28;20289;-68
2022/05/23 05:18:15;;;;;;;4.73;3.33;;;;;;;15.07;100.00;95920.28;4998244;28;20310;-68
2022/05/23 05:20:41;;;;;;;4.13;3.73;;;;;;;15.15;99.81;95922.34;5015657;28;20196;-69
2022/05/23 05:23:06;;;;;;;3.67;3.37;;;;;;;15.20;100.00;95935.50;4997510;28;20716;-68
2022/05/23 05:25:31;;;;;;;4.10;3.77;;;;;;;15.17;100.00;95934.19;5015147;28;20199;-68
2022/05/23 05:27:57;;;;;;;4.80;3.93;;;;;;;14.96;98.54;95911.66;5015473;28;20179;-68
2022/05/23 05:30:23;;;;;;;5.53;3.90;;;;;;;15.01;100.00;95905.53;5015276;28;20214;-69
2022/05/23 05:33:00;;;;;;;5.33;3.90;;;;;;;14.83;100.00;95886.66;5014812;28;20248;-69
2022/05/23 05:35:38;;;;;;;7.40;3.90;;;;;;;14.93;100.00;95862.06;4986847;28;20200;-69
2022/05/23 05:38:15;;;;;;;4.60;3.70;;;;;;;14.94;100.00;95839.88;5015250;28;20214;-69
2022/05/23 05:40:44;;;;;;;4.33;3.73;;;;;;;15.08;100.00;95825.00;5015105;28;20531;-69
2022/05/23 05:43:14;;;;;;;5.23;3.40;;;;;;;14.79;100.00;95814.41;5015070;28;20194;-73
2022/05/23 05:45:45;;;;;;;5.03;4.17;;;;;;;14.68;100.00;95801.59;5014949;28;20245;-69
2022/05/23 05:48:11;;;;;;;4.67;4.27;;;;;;;14.94;100.00;95806.38;5014583;28;20548;-70
2022/05/23 05:50:41;;;;;;;6.00;4.13;;;;;;;14.86;100.00;95816.75;5014712;28;20206;-69
2022/05/23 05:53:10;;;;;;;4.23;3.83;;;;;;;14.76;100.00;95811.56;5012303;28;20197;-69
2022/05/23 05:55:38;;;;;;;5.70;4.00;;;;;;;15.03;100.00;95806.56;5014255;28;20200;-69
2022/05/23 05:58:05;;;;;;;6.77;4.57;;;;;;;15.24;100.00;95804.50;5014575;28;20187;-69
2022/05/23 06:00:30;;;;;;;6.77;4.30;;;;;;;15.23;100.00;95782.59;5014324;28;20183;-69
2022/05/23 06:02:55;;;;;;;5.00;4.40;;;;;;;15.30;100.00;95769.06;5014220;28;20184;-69
2022/05/23 06:05:21;;;;;;;6.17;3.93;;;;;;;15.80;100.00;95778.28;5014561;28;20648;-69
2022/05/23 06:13:14;;;;;;;5.03;3.00;;;;;;;16.68;99.40;95756.38;5014236;28;20313;-69
2022/05/23 06:15:39;;;;;;;4.57;2.90;;;;;;;17.03;98.54;95739.09;4995944;28;20278;-70
2022/05/23 06:18:05;;;;;;;4.80;3.17;;;;;;;16.98;96.71;95728.59;5013995;28;20277;-70
2022/05/23 06:20:31;;;;;;;3.13;2.90;;;;;;;17.12;97.56;95724.09;5013726;28;20188;-70
2022/05/23 06:22:57;;;;;;;6.03;3.10;;;;;;;17.22;95.72;95728.44;5013657;28;20187;-71
2022/05/23 06:25:23;;;;;;;4.90;2.50;;;;;;;17.28;94.48;95743.13;5013555;28;20242;-70
2022/05/23 06:27:48;;;;;;;6.03;3.03;;;;;;;17.41;94.85;95742.34;5014191;28;20262;-70
2022/05/23 06:30:19;;;;;;;4.87;3.13;;;;;;;17.23;93.28;95732.63;5011726;28;20194;-70
2022/05/23 06:32:45;;;;;;;2.97;2.77;;;;;;;17.33;92.30;95727.91;5007836;28;20203;-70
2022/05/23 06:35:12;;;;;;;4.27;2.80;;;;;;;17.33;91.19;95719.22;5013261;28;20255;-70
2022/05/23 06:37:39;;;;;;;3.33;3.00;;;;;;;17.45;89.24;95716.81;5014069;28;20660;-70
2022/05/23 06:40:07;;;;;;;3.08;2.78;;;;;;;17.50;89.40;95708.78;5011545;28;20650;-70
2022/05/23 06:42:33;;;;;;;4.67;3.27;;;;;;;17.31;90.27;95705.47;5013379;28;20283;-71
2022/05/23 06:44:59;;;;;;;3.87;2.93;;;;;;;17.10;90.27;95691.06;5012360;28;20179;-69
2022/05/23 06:47:25;;;;;;;5.27;2.97;;;;;;;17.09;90.26;95676.25;5013572;28;20192;-69
2022/05/23 06:49:51;;;;;;;3.97;2.80;;;;;;;17.02;91.56;95677.41;5012604;28;20198;-69
2022/05/23 06:52:16;;;;;;;3.17;2.90;;;;;;;17.02;91.75;95664.19;5003312;28;20278;-68
2022/05/23 06:54:41;;;;;;;3.23;2.77;;;;;;;16.96;90.62;95656.63;5007364;28;20625;-70
2022/05/23 06:57:08;;;;;;;4.90;3.00;;;;;;;16.90;90.36;95652.50;5008342;28;20192;-69
2022/05/23 06:59:34;;;;;;;4.13;2.77;;;;;;;16.95;87.96;95647.13;5012459;28;20184;-68
2022/05/23 07:01:59;;;;;;;3.50;3.07;;;;;;;16.88;88.45;95633.50;5013300;28;20628;-68
2022/05/23 07:04:25;;;;;;;4.40;3.10;;;;;;;17.04;87.16;95624.97;5012880;28;20237;-69
2022/05/23 07:12:23;;;;;;;4.47;2.63;;;;;;;17.59;82.84;95632.81;5010748;28;20186;-69
2022/05/23 07:14:49;;;;;;;3.57;2.97;;;;;;;17.84;82.54;95637.56;5012785;28;20203;-69
2022/05/23 07:17:16;;;;;;;9.70;3.03;;;;;;;18.02;82.60;95643.78;5012763;28;20195;-69
2022/05/23 07:19:42;;;;;;;2.43;2.13;;;;;;;18.18;81.98;95652.16;5013054;28;20318;-69
2022/05/23 07:22:08;;;;;;;2.43;2.23;;;;;;;18.16;80.44;95657.78;5012525;28;20188;-70
2022/05/23 07:24:34;;;;;;;3.00;2.80;;;;;;;18.35;79.57;95659.44;5012208;28;20644;-68
2022/05/23 07:27:00;;;;;;;3.77;2.83;;;;;;;18.48;79.73;95670.00;5012349;28;20179;-68
2022/05/23 07:29:26;;;;;;;3.58;2.63;;;;;;;18.55;78.15;95670.38;5012545;28;20321;-68
2022/05/23 07:31:52;;;;;;;3.07;2.40;;;;;;;18.40;78.64;95673.38;5012090;28;20265;-69
2022/05/23 07:34:18;;;;;;;3.08;2.50;;;;;;;18.73;77.62;95683.72;5011769;28;20178;-70
2022/05/23 07:36:45;;;;;;;3.30;3.00;;;;;;;18.98;77.17;95667.13;4996307;28;20199;-68
2022/05/23 07:39:12;;;;;;;4.00;2.47;;;;;;;18.84;77.73;95661.13;5012195;28;20266;-68
2022/05/23 07:41:39;;;;;;;4.78;2.83;;;;;;;19.03;76.49;95667.00;5011967;28;20489;-68
2022/05/23 07:44:06;;;;;;;3.25;2.20;;;;;;;19.41;74.38;95661.94;5012705;28;20198;-68
2022/05/23 07:46:32;;;;;;;2.65;2.30;;;;;;;19.41;74.73;95665.38;5012525;28;20190;-70
2022/05/23 07:48:57;;;;;;;4.28;2.53;;;;;;;19.88;72.92;95653.13;5012311;28;20187;-69
2022/05/23 07:51:23;;;;;;;4.68;3.03;;;;;;;19.69;72.39;95649.97;5007712;28;20226;-68
2022/05/23 08:02:01;;;;;;;2.67;2.47;;;;;;;19.98;72.03;95653.88;5009101;28;20608;-67
2022/05/23 08:04:27;;;;;;;2.22;2.03;;;;;;;20.23;71.23;95651.19;5011676;28;20698;-67
2022/05/23 08:06:53;;;;;;;2.38;2.17;;;;;;;20.43;70.28;95651.66;5012189;28;20183;-67
2022/05/23 08:09:19;;;;;;;3.17;2.30;;;;;;;20.67;68.98;95643.94;5012359;28;20651;-70
2022/05/23 08:11:48;;;;;;;2.50;2.28;;;;;;;20.95;67.16;95653.09;5011940;28;20302;-69
2022/05/23 08:14:14;;;;;;;3.45;2.80;;;;;;;21.03;67.09;95654.13;5012384;28;20195;-69
2022/05/23 08:16:39;;;;;;;2.95;2.35;;;;;;;21.06;68.06;95651.63;5012322;28;20198;-69
2022/05/23 08:19:06;;;;;;;2.60;2.40;;;;;;;20.59;69.55;95650.84;5012118;28;20226;-68
2022/05/23 08:21:32;;;;;;;2.45;2.25;;;;;;;20.52;69.68;95649.75;5012067;28;20187;-68
2022/05/23 08:23:58;;;;;;;2.65;2.45;;;;;;;20.50;69.56;95650.09;5011848;28;20191;-69
2022/05/23 08:26:25;;;;;;;2.65;2.45;;;;;;;20.67;70.92;95647.34;4994335;28;20268;-69
2022/05/23 08:28:51;;;;;;;3.42;2.70;;;;;;;20.60;69.83;95640.97;5012326;28;20234;-68
2022/05/23 08:31:16;;;;;;;3.60;2.78;;;;;;;20.42;71.06;95645.56;5011439;28;20617;-69
2022/05/23 08:33:42;;;;;;;3.20;2.90;;;;;;;20.48;71.82;95646.16;5012141;28;20180;-68
2022/05/23 08:36:09;;;;;;;3.58;3.20;;;;;;;20.48;72.11;95638.97;5011913;28;20199;-69
2022/05/23 08:38:35;;;;;;;3.78;2.65;;;;;;;20.53;72.12;95636.13;5013005;28;20652;-69
2022/05/23 08:41:05;;;;;;;6.00;3.47;;;;;;;20.39;72.68;95632.91;5016205;28;20203;-69
2022/05/23 08:43:43;;;;;;;4.28;2.90;;;;;;;20.53;73.09;95630.03;5015492;28;20540;-69
2022/05/23 08:46:17;;;;;;;4.30;2.90;;;;;;;20.71;72.70;95623.56;5011747;28;20271;-69
2022/05/23 08:48:52;;;;;;;4.43;2.83;;;;;;;20.88;71.08;95620.81;5014864;28;20187;-69
2022/05/23 08:51:28;;;;;;;4.43;3.20;;;;;;;20.86;70.71;95616.91;5006938;28;20202;-69
2022/05/23 08:53:57;;;;;;;8.18;3.22;;;;;;;20.64;72.55;95608.06;5015535;28;20254;-69
2022/05/23 08:56:23;;;;;;;3.20;2.90;;;;;;;20.73;73.32;95610.72;5014985;28;20254;-69
2022/05/23 08:58:52;;;;;;;3.55;2.75;;;;;;;20.93;71.27;95611.88;5015293;28;20191;-69
2022/05/23 09:01:26;;;;;;;4.18;3.00;;;;;;;20.98;70.76;95614.34;5015270;28;20270;-69
2022/05/23 09:04:04;;;;;;;3.10;2.80;;;;;;;20.83;71.68;95609.56;5015299;28;20193;-69
2022/05/23 09:06:34;;;;;;;2.83;2.60;;;;;;;20.80;72.59;95608.31;5014751;28;20179;-68
2022/05/23 09:09:03;;;;;;;2.83;2.60;;;;;;;21.11;71.47;95606.13;5015538;28;20265;-69
2022/05/23 09:11:33;;;;;;;4.50;3.20;;;;;;;21.54;69.55;95592.53;5015188;28;20187;-69
2022/05/23 09:13:59;;;;;;;6.07;3.40;;;;;;;21.62;68.48;95585.59;4997417;28;20646;-68
2022/05/23 09:16:28;;;;;;;3.60;3.30;;;;;;;21.42;69.68;95586.34;5014032;28;20284;-69
2022/05/23 09:19:03;;;;;;;3.97;3.40;;;;;;;21.37;70.23;95581.22;5014707;28;20317;-69
2022/05/23 09:24:17;;;;;;;2.83;2.63;;;;;;;21.22;72.84;95592.47;5014727;28;20270;-69
2022/05/23 09:26:44;;;;;;;5.18;3.45;;;;;;;21.18;73.22;95604.88;5014515;28;20585;-70
2022/05/23 09:29:10;;;;;;;3.67;3.33;;;;;;;21.33;71.79;95617.63;5020026;28;20218;-69
2022/05/23 09:31:56;;;;;;;5.15;2.97;;;;;;;21.27;72.45;95608.25;5013821;28;20214;-69
2022/05/23 09:34:33;;;;;;;5.43;3.40;;;;;;;21.10;72.92;95588.56;4997403;28;20186;-69
2022/05/23 09:37:00;;;;;;;6.75;3.20;;;;;;;21.27;72.89;95592.28;5015309;28;20592;-69
2022/05/23 09:39:29;;;;;;;3.90;3.50;;;;;;;21.40;72.97;95586.69;5015106;28;20257;-68
2022/05/23 09:47:45;;;;;;;4.00;3.55;;;;;;;22.48;68.86;95586.69;5014687;28;20297;-69
2022/05/23 09:50:29;;;;;;;6.32;3.53;;;;;;;22.36;69.47;95588.22;5006609;28;20209;-69
2022/05/23 09:52:57;;;;;;;4.00;3.38;;;;;;;22.71;67.89;95582.47;5014270;28;20632;-69
2022/05/23 09:55:31;;;;;;;3.45;3.15;;;;;;;22.75;67.54;95586.84;5014295;28;20245;-70
2022/05/23 09:58:00;;;;;;;3.15;2.90;;;;;;;23.02;67.00;95595.31;5014796;28;20222;-69
2022/05/23 10:00:38;;;;;;;4.93;3.33;;;;;;;23.56;65.68;95596.63;5013956;28;20215;-70
2022/05/23 10:03:05;;;;;;;5.35;3.38;;;;;;;23.36;65.73;95616.22;5014543;28;20179;-70
2022/05/23 10:05:37;;;;;;;3.22;3.03;;;;;;;23.97;63.56;95608.06;5014097;28;20641;-68
2022/05/23 10:08:31;;;;;;;3.30;2.92;;;;;;;24.48;61.17;95613.66;5013849;28;20191;-68
2022/05/23 10:11:00;;;;;;;4.40;3.08;;;;;;;24.34;61.41;95622.91;5014617;28;20179;-68
2022/05/23 10:13:35;;;;;;;4.72;3.10;;;;;;;24.53;60.46;95616.88;5014032;28;20245;-69
2022/05/23 10:16:31;;;;;;;3.65;2.92;;;;;;;24.21;61.01;95615.25;5003928;28;20205;-69
2022/05/23 10:19:03;;;;;;;3.60;3.03;;;;;;;24.12;61.44;95617.28;5013588;28;20574;-69
2022/05/23 10:21:36;;;;;;;3.83;3.50;;;;;;;24.46;60.48;95611.34;5014065;28;20679;-69
2022/05/23 10:24:05;;;;;;;3.60;3.00;;;;;;;23.76;62.95;95640.38;5013900;28;20190;-69
2022/05/23 10:26:53;;;;;;;3.47;3.10;;;;;;;23.69;63.42;95637.47;5013425;28;20321;-69
2022/05/23 10:29:23;;;;;;;3.47;3.17;;;;;;;23.94;62.93;95660.41;5012851;28;20207;-69
2022/05/23 10:31:56;;;;;;;3.47;2.80;;;;;;;23.85;63.61;95664.34;5013202;28;20180;-69
2022/05/23 10:34:43;;;;;;;4.18;3.55;;;;;;;23.68;63.97;95660.03;5013754;28;20238;-70
2022/05/23 10:37:17;;;;;;;3.88;2.78;;;;;;;23.65;65.24;95662.59;5013908;28;20663;-69
2022/05/23 10:42:53;;;;;;;3.40;2.40;;;;;;;23.54;66.24;95672.97;5013641;28;20206;-69
2022/05/23 10:45:27;;;;;;;5.70;2.97;;;;;;;23.11;68.02;95681.53;4989442;28;20183;-69
2022/05/23 10:48:10;;;;;;;7.68;3.15;;;;;;;23.50;66.58;95680.13;5013261;28;20671;-69
2022/05/23 10:50:54;;;;;;;5.97;2.97;;;;;;;23.42;66.57;95683.66;4998987;28;20203;-69
2022/05/23 10:53:44;;;;;;;7.60;3.60;;;;;;;23.37;66.63;95689.22;5011334;28;20195;-69
2022/05/23 10:56:47;;;;;;;4.88;3.00;;;;;;;23.02;68.60;95689.66;5013206;28;20534;-69
2022/05/23 10:59:18;;;;;;;2.97;2.78;;;;;;;23.16;68.85;95694.69;5013081;28;20390;-69
2022/05/23 11:02:22;;;;;;;3.10;2.88;;;;;;;23.02;69.55;95697.66;5012983;28;20186;-69
2022/05/23 11:05:10;;;;;;;3.05;2.70;;;;;;;22.65;70.90;95707.47;4994581;28;20280;-69
2022/05/23 11:08:05;;;;;;;2.65;2.45;;;;;;;22.45;70.84;95716.31;5012750;28;20187;-69
2022/05/23 11:10:51;;;;;;;3.00;2.70;;;;;;;22.21;73.34;95722.31;5013108;28;20541;-69
2022/05/23 11:13:35;;;;;;;4.45;3.00;;;;;;;22.08;75.37;95734.03;5012742;28;20187;-70
2022/05/23 11:16:18;;;;;;;4.07;3.55;;;;;;;21.74;76.51;95743.03;5013014;28;20809;-70
2022/05/23 11:19:19;;;;;;;4.55;4.03;;;;;;;21.22;83.17;95776.38;5012578;28;20231;-70
2022/05/23 11:21:59;;;;;;;9.45;4.07;;;;;;;20.84;90.54;95779.72;4978871;28;20663;-69
2022/05/23 11:24:55;;;;;;;5.45;3.63;;;;;;;20.13;94.65;95771.25;4995019;28;20191;-68
2022/05/23 11:35:48;;;;;;;9.40;4.90;;;;;;;19.50;100.00;95764.53;5012401;28;20210;-69
2022/05/23 11:38:16;;;;;;;5.22;4.28;;;;;;;19.40;100.00;95778.09;5012671;28;20206;-68
2022/05/23 11:41:03;;;;;;;6.65;4.95;;;;;;;19.25;100.00;95769.75;5012051;28;20179;-68
2022/05/23 11:43:29;;;;;;;5.00;4.50;;;;;;;19.08;100.00;95754.50;5006997;28;20829;-69
2022/05/23 11:46:04;;;;;;;6.43;4.30;;;;;;;18.98;100.00;95760.09;5007935;28;20226;-67
2022/05/23 11:48:43;;;;;;;5.93;3.60;;;;;;;18.80;100.00;95759.19;5009601;28;20710;-67
2022/05/23 11:51:30;;;;;;;5.93;3.30;;;;;;;18.74;100.00;95768.38;5007806;28;20179;-68
2022/05/23 11:54:03;;;;;;;5.03;2.97;;;;;;;18.67;100.00;95766.13;5012516;28;20178;-68
2022/05/23 11:56:38;;;;;;;3.92;2.28;;;;;;;18.35;100.00;95769.00;5011920;28;20668;-68
2022/05/23 11:59:06;;;;;;;4.15;2.50;;;;;;;18.27;100.00;95762.56;5012138;28;20269;-68
2022/05/23 12:01:32;;;;;;;4.95;2.38;;;;;;;18.16;100.00;95768.41;5011905;28;20542;-68
2022/05/23 12:04:13;;;;;;;4.47;2.33;;;;;;;18.06;100.00;95748.16;5011593;28;20696;-67
2022/05/23 12:06:41;;;;;;;4.28;1.92;;;;;;;18.07;100.00;95723.22;5012301;28;20222;-68
2022/05/23 12:09:12;;;;;;;4.78;2.20;;;;;;;17.99;100.00;95686.81;5012162;28;20183;-68
2022/05/23 12:11:40;;;;;;;3.90;2.38;;;;;;;17.91;100.00;95642.44;5011543;28;20180;-67
2022/05/23 12:14:41;;;;;;;4.22;2.10;;;;;;;17.50;100.00;95538.44;5014723;28;20631;-67
2022/05/23 12:17:21;;;;;;;6.63;2.17;;;;;;;16.94;100.00;95474.28;5002883;28;20199;-68
2022/05/23 12:19:55;;;;;;;9.37;2.97;;;;;;;16.42;100.00;95417.44;5016194;28;20242;-69
2022/05/23 12:22:31;;;;;;;2.67;2.43;;;;;;;16.26;100.00;95371.25;5015992;28;20179;-71
2022/05/23 12:24:57;;;;;;;3.07;2.27;;;;;;;16.57;100.00;95316.59;5015954;28;20187;-69
2022/05/23 12:27:29;;;;;;;6.47;3.70;;;;;;;16.62;100.00;95299.84;5015764;28;20190;-69
2022/05/23 12:30:23;;;;;;;7.63;3.23;;;;;;;16.57;100.00;95273.47;5015276;28;20629;-70
2022/05/23 12:32:55;;;;;;;12.13;7.67;;;;;;;16.86;100.00;95284.44;5000260;28;20266;-70
2022/05/23 12:35:30;;;;;;;8.80;5.20;;;;;;;17.18;100.00;95287.88;5011534;28;20226;-71
2022/05/23 12:38:20;;;;;;;4.87;3.10;;;;;;;17.41;100.00;95294.66;5016060;28;20179;-70
2022/05/23 12:41:07;;;;;;;5.77;2.70;;;;;;;17.84;100.00;95308.84;5011844;28;20286;-70
2022/05/23 12:43:44;;;;;;;4.57;2.78;;;;;;;18.21;100.00;95367.75;5011283;28;20199;-72